Time;durP1;ratioP1;P1;durP2;ratioP2;P2;SDS_P1;SDS_P2;PMS_P1;PMS_P2;Temp;Humidity;BMP_temperature;BMP_pressure;BME280_temperature;BME280_humidity;BME280_pressure;Samples;Min_cycle;Max_cycle;Signal;HPM_P1;HPM_P2
2022/07/20 00:02:14;;;;;;;5.67;5.00;;;;;;;23.48;46.88;101752.22;5071601;28;20191;-72
2022/07/20 00:04:39;;;;;;;5.97;5.10;;;;;;;23.45;46.65;101748.81;5089542;28;20184;-72
2022/07/20 00:07:05;;;;;;;8.13;5.90;;;;;;;23.39;47.22;101746.31;5089461;28;20232;-71
2022/07/20 00:12:14;;;;;;;6.97;5.40;;;;;;;23.28;47.52;101743.00;5089914;28;20180;-72
2022/07/20 00:14:40;;;;;;;5.87;4.87;;;;;;;23.20;48.22;101739.69;5072004;28;20615;-72
2022/07/20 00:17:05;;;;;;;8.60;5.30;;;;;;;23.12;48.27;101744.16;5089634;28;20199;-72
2022/07/20 00:19:31;;;;;;;5.50;4.90;;;;;;;23.02;48.94;101750.44;5071821;28;20299;-70
2022/07/20 00:21:56;;;;;;;7.40;5.00;;;;;;;22.96;49.09;101747.91;5090056;28;20193;-72
2022/07/20 00:24:22;;;;;;;8.13;5.57;;;;;;;22.81;49.98;101742.94;5090022;28;20189;-73
2022/07/20 00:26:47;;;;;;;6.80;4.90;;;;;;;22.75;50.14;101738.66;5089627;28;20208;-70
2022/07/20 00:29:13;;;;;;;7.73;5.70;;;;;;;22.58;50.61;101747.66;5071751;28;20201;-74
2022/07/20 00:31:38;;;;;;;6.10;5.10;;;;;;;22.55;50.70;101739.91;5071821;28;20194;-74
2022/07/20 00:34:04;;;;;;;8.10;5.73;;;;;;;22.55;50.83;101735.50;5090205;28;20515;-69
2022/07/20 00:36:29;;;;;;;9.40;5.60;;;;;;;22.56;50.40;101739.00;5089754;28;20176;-75
2022/07/20 00:38:55;;;;;;;6.47;5.20;;;;;;;22.58;50.00;101737.22;5089854;28;20226;-74
2022/07/20 00:41:20;;;;;;;9.60;6.03;;;;;;;22.56;49.94;101736.38;5071549;28;20192;-73
2022/07/20 00:44:10;;;;;;;9.83;5.57;;;;;;;22.48;50.66;101741.72;5089739;28;20192;-74
2022/07/20 00:46:41;;;;;;;7.70;5.60;;;;;;;22.55;49.97;101742.50;5089351;28;20253;-74
2022/07/20 00:49:10;;;;;;;9.67;5.90;;;;;;;22.53;50.48;101734.69;5089552;28;20212;-72
2022/07/20 00:51:39;;;;;;;8.03;6.20;;;;;;;22.51;50.46;101741.66;5089663;28;20212;-73
2022/07/20 00:54:06;;;;;;;6.17;5.53;;;;;;;22.52;50.22;101732.09;5089498;28;20184;-73
2022/07/20 00:56:33;;;;;;;8.53;5.90;;;;;;;22.53;50.50;101729.47;5070930;28;20597;-72
2022/07/20 00:58:58;;;;;;;5.90;4.70;;;;;;;22.50;50.39;101729.50;5089143;28;20200;-73
2022/07/20 01:01:23;;;;;;;6.70;5.57;;;;;;;22.48;50.44;101733.03;5071236;28;20271;-73
2022/07/20 01:03:49;;;;;;;8.60;5.50;;;;;;;22.53;50.67;101724.25;5071574;28;20196;-73
2022/07/20 01:06:15;;;;;;;7.43;5.33;;;;;;;22.49;50.74;101727.78;5088691;28;20212;-71
2022/07/20 01:08:40;;;;;;;6.50;5.57;;;;;;;22.53;49.95;101720.75;5088921;28;20261;-73
2022/07/20 01:11:06;;;;;;;8.23;6.03;;;;;;;22.54;50.51;101717.25;5064539;28;20269;-71
2022/07/20 01:13:33;;;;;;;7.23;5.33;;;;;;;22.46;51.16;101719.13;5089513;28;20668;-72
2022/07/20 01:15:58;;;;;;;7.90;5.87;;;;;;;22.51;50.62;101725.16;5070775;28;20580;-72
2022/07/20 01:18:24;;;;;;;8.93;6.13;;;;;;;22.48;50.26;101723.44;5070892;28;20181;-73
2022/07/20 01:20:50;;;;;;;8.53;5.77;;;;;;;22.51;50.19;101718.16;5089456;28;20686;-72
2022/07/20 01:23:17;;;;;;;7.90;5.30;;;;;;;22.56;50.05;101718.09;5088619;28;20654;-72
2022/07/20 01:25:43;;;;;;;8.80;5.70;;;;;;;22.54;50.14;101720.72;5071241;28;20192;-73
2022/07/20 01:28:10;;;;;;;7.30;4.90;;;;;;;22.46;50.84;101716.53;5088783;28;20677;-73
2022/07/20 01:30:37;;;;;;;7.93;5.83;;;;;;;22.38;51.44;101717.47;5088874;28;20212;-72
2022/07/20 01:33:03;;;;;;;6.93;5.80;;;;;;;22.31;51.79;101714.97;5054280;28;20181;-73
2022/07/20 01:35:29;;;;;;;8.93;6.00;;;;;;;22.32;51.34;101710.63;5089151;28;20250;-73
2022/07/20 01:37:54;;;;;;;10.00;6.43;;;;;;;22.24;51.78;101702.88;5088866;28;20187;-73
2022/07/20 01:40:20;;;;;;;6.87;5.77;;;;;;;22.23;51.72;101702.91;5089346;28;20607;-72
2022/07/20 01:42:45;;;;;;;7.33;5.60;;;;;;;22.19;51.74;101700.34;5089523;28;20680;-72
2022/07/20 01:45:11;;;;;;;9.77;5.70;;;;;;;22.12;52.34;101693.47;5070815;28;20189;-72
2022/07/20 01:47:36;;;;;;;7.40;5.87;;;;;;;22.11;52.39;101696.97;5070644;28;20208;-71
2022/07/20 01:50:02;;;;;;;9.53;5.90;;;;;;;22.03;52.94;101701.41;5088784;28;20216;-72
2022/07/20 01:52:28;;;;;;;8.63;6.27;;;;;;;22.04;52.61;101700.56;5068501;28;20176;-69
2022/07/20 01:54:53;;;;;;;8.70;6.00;;;;;;;22.05;52.21;101693.56;5067954;28;20176;-73
2022/07/20 01:57:19;;;;;;;6.43;5.60;;;;;;;22.09;52.04;101697.88;5088427;28;20191;-71
2022/07/20 01:59:44;;;;;;;6.73;5.97;;;;;;;22.07;52.62;101697.88;5071711;28;20204;-73
2022/07/20 02:02:10;;;;;;;8.70;5.60;;;;;;;22.01;52.54;101687.53;5074260;28;20192;-73
2022/07/20 02:04:35;;;;;;;8.83;5.73;;;;;;;21.93;53.22;101693.75;5092595;28;20199;-72
2022/07/20 02:07:01;;;;;;;8.63;5.93;;;;;;;21.92;53.20;101686.84;5091908;28;20641;-72
2022/07/20 02:09:27;;;;;;;8.37;5.63;;;;;;;21.91;53.10;101691.16;5103688;28;20212;-73
2022/07/20 02:11:52;;;;;;;9.30;5.67;;;;;;;21.82;54.17;101685.19;5088234;28;20196;-72
2022/07/20 02:14:18;;;;;;;6.50;5.53;;;;;;;21.62;54.63;101680.22;5092042;28;20267;-72
2022/07/20 02:16:43;;;;;;;6.70;5.63;;;;;;;21.70;54.08;101680.16;5091713;28;20180;-73
2022/07/20 02:19:09;;;;;;;7.27;5.93;;;;;;;21.66;54.36;101681.03;5091806;28;20576;-72
2022/07/20 02:21:34;;;;;;;7.20;5.77;;;;;;;21.59;54.76;101685.47;5092047;28;20180;-73
2022/07/20 02:24:00;;;;;;;8.77;6.17;;;;;;;21.54;54.74;101686.38;5091911;28;20601;-72
2022/07/20 02:26:25;;;;;;;8.53;5.33;;;;;;;21.45;55.54;101682.16;5091557;28;20345;-72
2022/07/20 02:28:52;;;;;;;6.83;5.43;;;;;;;21.42;55.00;101690.00;5091918;28;20216;-72
2022/07/20 02:31:19;;;;;;;9.70;6.10;;;;;;;21.38;55.56;101690.06;5091806;28;20615;-71
2022/07/20 02:33:45;;;;;;;8.67;6.30;;;;;;;21.24;56.38;101685.00;5091726;28;20642;-72
2022/07/20 02:36:11;;;;;;;6.73;5.73;;;;;;;21.09;57.03;101687.75;5073919;28;20208;-72
2022/07/20 02:38:37;;;;;;;8.43;5.63;;;;;;;21.09;56.98;101677.34;5090884;28;20289;-72
2022/07/20 02:41:03;;;;;;;8.10;5.80;;;;;;;21.03;57.14;101690.44;5091288;28;20654;-73
2022/07/20 02:43:29;;;;;;;7.87;5.67;;;;;;;20.95;57.93;101680.94;5091571;28;20193;-73
2022/07/20 02:45:55;;;;;;;8.23;5.87;;;;;;;20.91;58.06;101681.88;5091471;28;20255;-72
2022/07/20 02:48:20;;;;;;;7.17;5.40;;;;;;;20.74;58.98;101682.00;5073383;28;20205;-71
2022/07/20 02:50:46;;;;;;;6.57;5.23;;;;;;;20.69;58.86;101683.75;5086100;28;20184;-72
2022/07/20 02:53:13;;;;;;;8.87;6.03;;;;;;;20.57;59.45;101683.00;5073405;28;20638;-72
2022/07/20 02:55:39;;;;;;;7.97;6.27;;;;;;;20.51;59.66;101683.91;5091594;28;20196;-72
2022/07/20 02:58:05;;;;;;;6.90;5.80;;;;;;;20.53;59.82;101676.94;5091095;28;20192;-71
2022/07/20 03:00:31;;;;;;;11.27;5.93;;;;;;;20.46;60.27;101672.66;5091756;28;20211;-69
2022/07/20 03:02:57;;;;;;;9.27;5.87;;;;;;;20.44;60.20;101678.75;5091517;28;20606;-73
2022/07/20 03:05:22;;;;;;;6.43;5.70;;;;;;;20.32;61.32;101679.69;5091025;28;20642;-71
2022/07/20 03:07:48;;;;;;;8.60;6.20;;;;;;;20.26;61.22;101677.16;5090408;28;20266;-72
2022/07/20 03:10:13;;;;;;;8.00;5.53;;;;;;;20.26;61.36;101677.16;5072262;28;20231;-71
2022/07/20 03:12:39;;;;;;;7.37;5.53;;;;;;;20.20;61.56;101673.72;5072299;28;20196;-73
2022/07/20 03:15:06;;;;;;;5.97;5.20;;;;;;;20.13;62.05;101677.25;5091165;28;20168;-72
2022/07/20 03:17:31;;;;;;;6.30;5.67;;;;;;;20.08;62.26;101676.41;5090731;28;20196;-72
2022/07/20 03:19:57;;;;;;;7.17;5.73;;;;;;;20.06;62.23;101672.91;5106493;28;20301;-73
2022/07/20 03:22:23;;;;;;;7.17;5.33;;;;;;;19.95;62.77;101672.97;5072759;28;20192;-72
2022/07/20 03:24:48;;;;;;;7.70;6.57;;;;;;;19.90;63.23;101673.88;5090761;28;20199;-73
2022/07/20 03:27:14;;;;;;;7.73;5.73;;;;;;;19.83;63.63;101679.97;5090266;28;20708;-72
2022/07/20 03:29:40;;;;;;;7.00;5.80;;;;;;;19.78;64.06;101673.94;5090901;28;20214;-73
2022/07/20 03:32:05;;;;;;;7.10;5.97;;;;;;;19.69;64.38;101674.84;5090745;28;20180;-72
2022/07/20 03:34:31;;;;;;;6.80;6.10;;;;;;;19.71;64.47;101667.91;5089393;28;20188;-72
2022/07/20 03:36:57;;;;;;;10.07;6.93;;;;;;;19.64;65.12;101665.34;5090394;28;20206;-72
2022/07/20 03:39:22;;;;;;;7.47;6.57;;;;;;;19.64;64.93;101662.72;5090212;28;20212;-70
2022/07/20 03:41:48;;;;;;;7.10;6.40;;;;;;;19.55;65.78;101673.16;5090394;28;20192;-71
2022/07/20 03:44:13;;;;;;;7.77;6.70;;;;;;;19.52;65.88;101673.16;5090531;28;20191;-72
2022/07/20 03:46:38;;;;;;;9.70;7.70;;;;;;;19.48;65.93;101674.91;5090625;28;20579;-72
2022/07/20 03:49:04;;;;;;;9.83;7.10;;;;;;;19.46;66.10;101668.00;5090072;28;20548;-71
2022/07/20 03:51:30;;;;;;;9.87;7.53;;;;;;;19.43;66.73;101673.22;5090355;28;20188;-71
2022/07/20 03:53:55;;;;;;;9.43;8.17;;;;;;;19.40;67.00;101668.88;5089863;28;20184;-73
2022/07/20 03:56:22;;;;;;;10.23;7.97;;;;;;;19.47;66.56;101668.00;5090167;28;20216;-72
2022/07/20 03:58:47;;;;;;;10.10;7.93;;;;;;;19.40;66.74;101668.88;5090053;28;20196;-73
2022/07/20 04:01:13;;;;;;;9.70;7.40;;;;;;;19.45;66.72;101679.28;5090208;28;20874;-70
2022/07/20 04:03:38;;;;;;;8.20;7.27;;;;;;;19.41;66.90;101673.22;5090307;28;20241;-73
2022/07/20 04:06:04;;;;;;;14.13;8.57;;;;;;;19.42;67.33;101674.06;5089546;28;20236;-72
2022/07/20 04:08:29;;;;;;;10.07;7.53;;;;;;;19.41;67.93;101673.22;5089622;28;20184;-71
2022/07/20 04:10:55;;;;;;;13.67;7.60;;;;;;;19.46;67.67;101673.19;5085778;28;20953;-72
2022/07/20 04:13:21;;;;;;;11.77;7.57;;;;;;;19.44;67.85;101665.41;5090382;28;20730;-72
2022/07/20 04:15:47;;;;;;;9.97;6.63;;;;;;;19.48;67.82;101680.13;5090033;28;20192;-72
2022/07/20 04:18:15;;;;;;;10.27;6.67;;;;;;;19.51;67.46;101676.66;5085169;28;20177;-70
2022/07/20 04:20:41;;;;;;;9.33;7.17;;;;;;;19.57;67.96;101682.69;5071744;28;20234;-72
2022/07/20 04:23:07;;;;;;;7.57;6.67;;;;;;;19.58;68.33;101678.38;5089975;28;20192;-72
2022/07/20 04:25:32;;;;;;;7.90;6.30;;;;;;;19.63;68.10;101679.22;5071945;28;20264;-71
2022/07/20 04:27:58;;;;;;;9.50;6.57;;;;;;;19.63;67.46;101677.44;5089688;28;20211;-72
2022/07/20 04:30:23;;;;;;;9.37;6.73;;;;;;;19.68;68.00;101680.94;5089842;28;20290;-71
2022/07/20 04:32:49;;;;;;;10.67;6.50;;;;;;;19.76;68.44;101679.13;5089815;28;20181;-71
2022/07/20 04:35:14;;;;;;;8.00;5.53;;;;;;;19.82;68.27;101673.06;5089837;28;20231;-71
2022/07/20 04:37:40;;;;;;;7.23;5.87;;;;;;;19.90;68.04;101677.31;5071451;28;20188;-72
2022/07/20 04:40:06;;;;;;;9.13;6.23;;;;;;;19.95;68.54;101677.31;5089620;28;20204;-71
2022/07/20 04:42:32;;;;;;;8.20;6.40;;;;;;;20.02;67.73;101676.41;5071431;28;20223;-71
2022/07/20 04:44:58;;;;;;;7.13;6.03;;;;;;;20.10;67.36;101675.53;5089601;28;20176;-72
2022/07/20 04:47:23;;;;;;;7.50;5.73;;;;;;;20.19;67.53;101680.69;5071155;28;20789;-72
2022/07/20 04:49:49;;;;;;;9.37;6.20;;;;;;;20.25;67.06;101677.16;5071306;28;20206;-70
2022/07/20 04:52:15;;;;;;;6.77;5.80;;;;;;;20.38;66.57;101689.22;5071461;28;20192;-71
2022/07/20 04:54:41;;;;;;;11.70;6.50;;;;;;;20.46;66.18;101682.22;5089526;28;20181;-71
2022/07/20 04:57:08;;;;;;;10.63;5.83;;;;;;;20.54;66.48;101676.06;5071309;28;20272;-71
2022/07/20 04:59:33;;;;;;;16.57;6.63;;;;;;;20.63;65.61;101676.00;5089496;28;20251;-72
2022/07/20 05:01:59;;;;;;;15.40;6.70;;;;;;;20.74;64.64;101670.72;5063928;28;21032;-69
2022/07/20 05:04:24;;;;;;;16.47;6.27;;;;;;;20.89;63.40;101670.56;5079680;28;20658;-71
2022/07/20 05:06:50;;;;;;;13.40;6.43;;;;;;;21.03;62.64;101672.19;5089030;28;20670;-70
2022/07/20 05:09:15;;;;;;;15.90;6.17;;;;;;;21.16;61.95;101665.13;5089445;28;20208;-71
2022/07/20 05:11:41;;;;;;;8.47;5.70;;;;;;;21.28;61.06;101667.59;5054685;28;20192;-72
2022/07/20 05:14:08;;;;;;;10.97;5.40;;;;;;;21.40;60.94;101664.84;5071272;28;20881;-72
2022/07/20 05:16:34;;;;;;;11.67;5.97;;;;;;;21.56;60.60;101661.19;5089158;28;20672;-72
2022/07/20 05:19:00;;;;;;;10.77;5.60;;;;;;;21.68;60.48;101658.41;5089328;28;20219;-69
2022/07/20 05:21:25;;;;;;;11.37;5.83;;;;;;;21.84;59.97;101659.97;5089778;28;20188;-70
2022/07/20 05:23:51;;;;;;;9.20;5.40;;;;;;;21.96;59.00;101650.22;5089877;28;20196;-69
2022/07/20 05:26:16;;;;;;;10.07;5.87;;;;;;;22.11;57.33;101652.59;5089503;28;20200;-69
2022/07/20 05:28:42;;;;;;;9.77;6.13;;;;;;;22.27;57.63;101643.69;5089353;28;20231;-70
2022/07/20 05:31:09;;;;;;;7.60;6.30;;;;;;;22.43;56.66;101650.38;5089397;28;20237;-70
2022/07/20 05:33:35;;;;;;;9.03;5.47;;;;;;;22.58;56.71;101656.25;5050596;28;20662;-69
2022/07/20 05:36:02;;;;;;;10.20;5.40;;;;;;;22.72;54.67;101652.53;5073602;28;20279;-69
2022/07/20 05:38:29;;;;;;;10.90;5.87;;;;;;;22.90;54.50;101652.22;5093152;28;20635;-69
2022/07/20 05:40:54;;;;;;;7.83;5.70;;;;;;;23.04;54.92;101651.94;5093192;28;20180;-69
2022/07/20 05:43:20;;;;;;;6.83;5.30;;;;;;;23.17;53.91;101649.09;5093074;28;20196;-70
2022/07/20 05:45:45;;;;;;;7.03;5.67;;;;;;;23.29;53.32;101650.63;5092976;28;20279;-69
2022/07/20 05:48:11;;;;;;;9.80;5.47;;;;;;;23.43;52.74;101657.28;5092776;28;20658;-69
2022/07/20 05:50:38;;;;;;;9.60;6.20;;;;;;;23.54;52.00;101657.97;5092808;28;20283;-70
2022/07/20 05:53:04;;;;;;;11.40;6.07;;;;;;;23.73;51.99;101656.69;5092842;28;20184;-70
2022/07/20 05:55:30;;;;;;;14.53;6.50;;;;;;;23.89;52.02;101660.66;5092939;28;20188;-70
2022/07/20 05:57:55;;;;;;;8.77;5.77;;;;;;;24.03;51.63;101649.94;5092730;28;20185;-70
2022/07/20 06:00:21;;;;;;;12.30;6.03;;;;;;;24.16;51.49;101649.63;5074577;28;20693;-70
2022/07/20 06:02:46;;;;;;;9.17;5.70;;;;;;;24.26;50.76;101651.13;5092657;28;20184;-69
2022/07/20 06:05:11;;;;;;;7.20;5.20;;;;;;;24.40;50.19;101651.66;5092416;28;20245;-70
2022/07/20 06:07:37;;;;;;;10.53;5.60;;;;;;;24.50;50.36;101653.13;5092228;28;20692;-70
2022/07/20 06:10:03;;;;;;;9.13;5.53;;;;;;;24.63;49.60;101661.59;5074245;28;20300;-70
2022/07/20 06:12:29;;;;;;;11.20;5.80;;;;;;;24.72;49.64;101659.59;5092689;28;20601;-70
2022/07/20 06:14:54;;;;;;;10.50;5.93;;;;;;;24.84;49.32;101664.53;5073969;28;20274;-70
2022/07/20 06:17:19;;;;;;;7.50;5.60;;;;;;;24.88;48.55;101658.31;5092128;28;20184;-69
2022/07/20 06:19:45;;;;;;;7.57;5.67;;;;;;;25.02;48.58;101657.94;5086195;28;20299;-70
2022/07/20 06:22:10;;;;;;;8.80;6.10;;;;;;;25.23;48.63;101652.97;5092406;28;20234;-69
2022/07/20 06:24:36;;;;;;;6.83;5.67;;;;;;;25.33;48.24;101649.22;5092384;28;20272;-69
2022/07/20 06:27:01;;;;;;;8.07;5.85;;;;;;;25.43;48.22;101655.94;5073969;28;20211;-71
2022/07/20 06:29:27;;;;;;;7.65;6.07;;;;;;;25.48;47.37;101658.44;5078369;28;20258;-69
2022/07/20 06:31:52;;;;;;;6.80;5.90;;;;;;;25.56;47.11;101654.66;5059367;28;20184;-68
2022/07/20 06:34:18;;;;;;;9.48;5.88;;;;;;;25.73;47.07;101651.53;5066447;28;20185;-70
2022/07/20 06:36:45;;;;;;;13.60;5.82;;;;;;;25.83;46.76;101655.63;5092283;28;20169;-70
2022/07/20 06:39:11;;;;;;;13.40;6.00;;;;;;;25.99;46.83;101657.78;5092158;28;20212;-69
2022/07/20 06:41:36;;;;;;;10.80;5.50;;;;;;;26.09;46.05;101656.59;5091007;28;20220;-70
2022/07/20 06:44:08;;;;;;;8.98;5.88;;;;;;;26.25;45.95;101662.22;5075012;28;20241;-70
2022/07/20 06:46:34;;;;;;;9.07;5.95;;;;;;;26.18;45.34;101665.94;5073504;28;20230;-70
2022/07/20 06:48:59;;;;;;;11.85;6.30;;;;;;;26.23;45.17;101661.38;5073814;28;20208;-69
2022/07/20 06:51:25;;;;;;;6.93;5.95;;;;;;;26.38;45.19;101668.81;5091990;28;20634;-70
2022/07/20 06:53:50;;;;;;;7.80;6.07;;;;;;;26.55;44.80;101675.22;5091166;28;20946;-70
2022/07/20 06:56:16;;;;;;;7.78;5.80;;;;;;;26.66;45.03;101670.50;5091227;28;20197;-69
2022/07/20 06:58:41;;;;;;;7.32;5.97;;;;;;;26.84;44.92;101671.66;5091729;28;20283;-69
2022/07/20 07:01:07;;;;;;;9.60;5.55;;;;;;;26.93;44.57;101672.19;5090422;28;20765;-70
2022/07/20 07:03:32;;;;;;;8.55;5.80;;;;;;;27.13;43.98;101663.59;5091120;28;20250;-68
2022/07/20 07:05:57;;;;;;;11.50;6.72;;;;;;;27.01;44.70;101666.66;5072593;28;20793;-69
2022/07/20 07:08:23;;;;;;;9.65;6.15;;;;;;;27.13;44.63;101667.06;5090863;28;20227;-71
2022/07/20 07:10:48;;;;;;;8.30;6.38;;;;;;;27.43;44.76;101675.69;5073086;28;20227;-71
2022/07/20 07:13:14;;;;;;;9.55;5.60;;;;;;;27.46;43.41;101665.91;5091232;28;20208;-71
2022/07/20 07:15:39;;;;;;;10.90;6.28;;;;;;;27.53;44.24;101672.66;5091095;28;20610;-71
2022/07/20 07:18:04;;;;;;;7.03;5.60;;;;;;;27.70;43.49;101651.81;5090547;28;20632;-72
2022/07/20 07:20:30;;;;;;;8.80;6.32;;;;;;;27.83;44.46;101652.25;5090887;28;20201;-69
2022/07/20 07:22:55;;;;;;;9.35;5.72;;;;;;;28.08;43.88;101651.22;5090625;28;20647;-70
2022/07/20 07:25:21;;;;;;;5.90;5.30;;;;;;;28.10;42.94;101661.72;5090736;28;20198;-71
2022/07/20 07:27:46;;;;;;;7.32;5.80;;;;;;;28.14;43.21;101652.75;5090297;28;20227;-71
2022/07/20 07:30:12;;;;;;;9.85;5.80;;;;;;;28.26;43.57;101650.50;5090537;28;20409;-71
2022/07/20 07:32:37;;;;;;;8.77;5.70;;;;;;;28.43;42.82;101660.38;5071906;28;20204;-70
2022/07/20 07:35:03;;;;;;;9.18;5.80;;;;;;;28.62;42.33;101659.56;5090388;28;20184;-71
2022/07/20 07:37:29;;;;;;;8.35;5.10;;;;;;;28.89;42.79;101647.84;5090380;28;20199;-70
2022/07/20 07:39:54;;;;;;;9.20;5.43;;;;;;;29.10;42.53;101651.34;5090360;28;20574;-71
2022/07/20 07:42:21;;;;;;;9.15;5.70;;;;;;;29.14;41.37;101659.06;5090371;28;20586;-71
2022/07/20 07:44:47;;;;;;;8.07;6.20;;;;;;;28.78;41.53;101650.06;5098204;28;20669;-70
2022/07/20 07:47:12;;;;;;;9.80;6.30;;;;;;;29.15;41.85;101649.38;5101750;28;20299;-71
2022/07/20 07:49:37;;;;;;;8.25;5.50;;;;;;;29.43;41.77;101647.22;5110626;28;20621;-70
2022/07/20 07:52:03;;;;;;;7.32;5.70;;;;;;;29.72;41.44;101644.97;5110458;28;20657;-70
2022/07/20 07:54:29;;;;;;;9.70;6.25;;;;;;;29.79;41.04;101645.53;5073252;28;20232;-71
2022/07/20 07:56:54;;;;;;;8.88;5.82;;;;;;;29.86;40.51;101641.66;5089160;28;20268;-70
2022/07/20 07:59:19;;;;;;;7.03;5.80;;;;;;;30.05;40.19;101639.84;5071479;28;20307;-71
2022/07/20 08:01:45;;;;;;;8.07;5.68;;;;;;;29.88;40.36;101642.44;5071702;28;20187;-71
2022/07/20 08:04:12;;;;;;;8.18;5.40;;;;;;;30.36;40.13;101641.88;5090992;28;20289;-71
2022/07/20 08:06:37;;;;;;;8.73;5.60;;;;;;;30.67;39.65;101635.03;5102739;28;20208;-70
2022/07/20 08:09:03;;;;;;;11.95;5.93;;;;;;;30.76;39.34;101633.69;5090653;28;20203;-70
2022/07/20 08:11:29;;;;;;;11.85;5.90;;;;;;;30.89;39.74;101632.13;5067859;28;20192;-70
2022/07/20 08:13:54;;;;;;;7.38;5.65;;;;;;;30.83;39.17;101635.94;5088946;28;20180;-70
2022/07/20 08:16:20;;;;;;;8.40;5.40;;;;;;;30.77;38.57;101636.28;5090302;28;20187;-70
2022/07/20 08:18:46;;;;;;;7.07;5.60;;;;;;;31.12;38.66;101637.09;5091160;28;20208;-72
2022/07/20 08:21:11;;;;;;;9.65;5.72;;;;;;;30.98;38.38;101639.59;5089956;28;20259;-71
2022/07/20 08:23:36;;;;;;;5.80;5.03;;;;;;;31.33;38.22;101634.19;5090001;28;20199;-71
2022/07/20 08:26:02;;;;;;;8.85;5.47;;;;;;;31.73;37.53;101624.91;5071570;28;20222;-71
2022/07/20 08:28:27;;;;;;;7.47;5.85;;;;;;;31.87;37.18;101625.03;5071324;28;20561;-71
2022/07/20 08:30:53;;;;;;;8.50;5.28;;;;;;;31.87;38.06;101630.31;5079786;28;20669;-72
2022/07/20 08:33:19;;;;;;;13.18;5.70;;;;;;;31.81;36.66;101634.16;5070177;28;20706;-70
2022/07/20 08:35:45;;;;;;;6.75;5.30;;;;;;;32.02;36.71;101632.97;5069464;28;20181;-71
2022/07/20 08:38:11;;;;;;;8.07;5.80;;;;;;;31.96;37.26;101625.38;5069277;28;20196;-70
2022/07/20 08:40:38;;;;;;;5.75;5.18;;;;;;;31.91;37.46;101621.25;5069243;28;20228;-71
2022/07/20 08:43:04;;;;;;;6.30;4.93;;;;;;;32.31;36.91;101618.91;5035104;28;20249;-71
2022/07/20 08:45:31;;;;;;;10.85;5.55;;;;;;;32.73;34.96;101619.03;5069958;28;20707;-71
2022/07/20 08:47:58;;;;;;;7.22;5.25;;;;;;;32.38;35.15;101630.91;5051116;28;20209;-71
2022/07/20 08:50:26;;;;;;;7.63;5.30;;;;;;;32.94;35.83;101622.22;5069152;28;20299;-71
2022/07/20 08:52:52;;;;;;;14.27;5.45;;;;;;;33.01;35.06;101621.75;5051277;28;20201;-70
2022/07/20 08:55:19;;;;;;;11.43;5.45;;;;;;;32.98;34.13;101629.94;5069609;28;20193;-71
2022/07/20 08:57:44;;;;;;;7.82;5.40;;;;;;;33.02;35.87;101622.63;5067746;28;20639;-71
2022/07/20 09:00:10;;;;;;;10.05;5.60;;;;;;;33.33;33.71;101619.81;5054641;28;20266;-70
2022/07/20 09:02:47;;;;;;;8.13;5.22;;;;;;;33.52;35.08;101615.88;5058190;28;20256;-70
2022/07/20 09:05:12;;;;;;;7.05;5.07;;;;;;;33.89;34.35;101612.59;5057402;28;20339;-71
2022/07/20 09:07:42;;;;;;;6.85;4.90;;;;;;;34.11;33.98;101607.59;5056114;28;20976;-71
2022/07/20 09:10:17;;;;;;;10.60;4.90;;;;;;;34.49;34.50;101610.41;5060524;28;20204;-71
2022/07/20 09:12:56;;;;;;;7.97;5.53;;;;;;;34.26;33.62;101609.22;5059113;28;20196;-70
2022/07/20 09:15:31;;;;;;;6.90;5.00;;;;;;;34.64;33.33;101604.03;5023572;28;20257;-70
2022/07/20 09:18:13;;;;;;;6.03;4.90;;;;;;;34.63;32.88;101600.50;5064124;28;20549;-71
2022/07/20 09:20:51;;;;;;;5.20;4.68;;;;;;;34.62;33.09;101595.31;5076794;28;20215;-72
2022/07/20 09:23:30;;;;;;;6.47;5.13;;;;;;;34.64;33.25;101599.56;5090981;28;20206;-72
2022/07/20 09:25:58;;;;;;;7.00;4.97;;;;;;;34.36;31.00;101597.06;5074747;28;20203;-70
2022/07/20 09:28:39;;;;;;;8.43;5.00;;;;;;;34.73;31.35;101596.28;5092903;28;20244;-71
2022/07/20 09:31:33;;;;;;;7.10;5.05;;;;;;;35.10;31.02;101594.59;5090242;28;20189;-72
2022/07/20 09:34:12;;;;;;;6.00;4.43;;;;;;;35.32;30.98;101597.47;5083529;28;20242;-72
2022/07/20 09:36:41;;;;;;;9.35;4.85;;;;;;;35.55;31.25;101588.66;5058442;28;20318;-71
2022/07/20 09:39:07;;;;;;;10.52;5.00;;;;;;;35.61;31.11;101601.53;5075274;28;20226;-72
2022/07/20 09:41:33;;;;;;;9.43;5.00;;;;;;;35.30;30.09;101600.25;5094332;28;20574;-72
2022/07/20 09:44:00;;;;;;;7.35;4.43;;;;;;;35.45;28.02;101595.63;5093468;28;20176;-72
2022/07/20 09:46:30;;;;;;;5.15;4.30;;;;;;;35.67;27.56;101588.63;5092824;28;20208;-72
2022/07/20 09:48:58;;;;;;;7.90;4.47;;;;;;;35.45;27.70;101595.63;5074924;28;20204;-72
2022/07/20 09:51:27;;;;;;;6.45;4.88;;;;;;;35.59;28.94;101595.50;5093119;28;20642;-72
2022/07/20 09:54:04;;;;;;;9.02;4.68;;;;;;;36.02;29.04;101594.06;5075886;28;20197;-73
2022/07/20 09:56:30;;;;;;;7.55;4.57;;;;;;;36.16;28.47;101600.06;5074627;28;20164;-72
2022/07/20 09:58:58;;;;;;;5.65;4.45;;;;;;;35.81;25.80;101596.50;5080922;28;20223;-71
2022/07/20 10:01:29;;;;;;;6.60;4.43;;;;;;;36.40;26.74;101592.03;5084058;28;20188;-72
2022/07/20 10:03:57;;;;;;;9.65;4.80;;;;;;;36.09;25.90;101601.50;5095347;28;20184;-73
2022/07/20 10:06:25;;;;;;;7.07;4.53;;;;;;;36.52;25.84;101589.28;5092799;28;20223;-73
2022/07/20 10:08:51;;;;;;;6.55;4.30;;;;;;;36.65;26.10;101597.22;5092894;28;20246;-72
2022/07/20 10:11:19;;;;;;;8.40;4.80;;;;;;;36.62;26.25;101589.44;5059923;28;20189;-71
2022/07/20 10:13:45;;;;;;;8.45;4.90;;;;;;;36.64;25.65;101588.34;5074837;28;20185;-70
2022/07/20 10:16:19;;;;;;;5.85;4.50;;;;;;;36.59;25.88;101589.66;5092959;28;20250;-72
2022/07/20 10:18:46;;;;;;;4.80;4.25;;;;;;;36.61;26.46;101582.41;5092696;28;20238;-71
2022/07/20 10:21:30;;;;;;;9.05;4.40;;;;;;;36.73;26.17;101584.13;5092204;28;20183;-73
2022/07/20 10:24:14;;;;;;;8.80;4.55;;;;;;;37.25;26.99;101576.44;5072249;28;20757;-72
2022/07/20 10:26:40;;;;;;;7.07;4.70;;;;;;;37.21;26.10;101574.13;5072184;28;20266;-72
2022/07/20 10:29:05;;;;;;;5.45;3.80;;;;;;;37.32;25.67;101566.09;5028390;28;20196;-70
2022/07/20 10:31:51;;;;;;;8.23;4.57;;;;;;;37.54;25.01;101566.91;5047121;28;20191;-72
2022/07/20 10:34:43;;;;;;;5.43;4.47;;;;;;;37.55;24.98;101563.25;5072269;28;20255;-72
2022/07/20 10:37:20;;;;;;;5.85;4.22;;;;;;;37.63;24.67;101565.31;5071786;28;20165;-73
2022/07/20 10:39:47;;;;;;;6.18;3.97;;;;;;;37.13;25.29;101565.84;5053977;28;20751;-72
2022/07/20 10:42:30;;;;;;;9.98;4.45;;;;;;;37.77;26.07;101565.03;5054290;28;20181;-73
2022/07/20 10:45:19;;;;;;;7.93;4.65;;;;;;;37.92;24.47;101559.28;5054038;28;20196;-72
2022/07/20 10:47:50;;;;;;;7.38;4.40;;;;;;;37.96;24.64;101559.84;5053250;28;20303;-72
2022/07/20 10:50:22;;;;;;;9.93;4.55;;;;;;;37.93;24.09;101563.63;5071828;28;20296;-72
2022/07/20 10:52:49;;;;;;;7.85;4.15;;;;;;;37.96;24.28;101554.50;5071680;28;20586;-71
2022/07/20 10:55:33;;;;;;;8.20;4.57;;;;;;;38.20;24.45;101563.22;5071652;28;20206;-71
2022/07/20 10:58:05;;;;;;;7.38;4.13;;;;;;;38.38;26.26;101559.81;5062868;28;20181;-70
2022/07/20 11:00:46;;;;;;;6.72;4.20;;;;;;;38.49;24.43;101551.75;5052301;28;20295;-73
2022/07/20 11:03:12;;;;;;;5.60;4.20;;;;;;;38.49;24.88;101549.06;5071577;28;20180;-72
2022/07/20 11:05:39;;;;;;;4.82;3.92;;;;;;;38.82;25.61;101546.16;5071700;28;20185;-71
2022/07/20 11:08:09;;;;;;;4.72;3.80;;;;;;;38.88;24.19;101542.06;5071338;28;20252;-73
2022/07/20 11:10:36;;;;;;;6.43;4.15;;;;;;;38.94;23.78;101550.44;5082667;28;20589;-71
2022/07/20 11:13:11;;;;;;;9.18;4.70;;;;;;;38.95;23.14;101546.78;5083967;28;20252;-72
2022/07/20 11:15:47;;;;;;;6.55;4.43;;;;;;;38.70;22.67;101541.84;5091256;28;20172;-72
2022/07/20 11:18:18;;;;;;;5.75;3.78;;;;;;;38.89;22.00;101544.66;5073218;28;20263;-71
2022/07/20 11:20:54;;;;;;;6.07;4.05;;;;;;;38.74;22.20;101535.25;5092149;28;20512;-72
2022/07/20 11:23:22;;;;;;;8.52;4.38;;;;;;;38.64;22.45;101536.16;5073342;28;20191;-72
2022/07/20 11:25:49;;;;;;;4.70;4.20;;;;;;;38.90;21.85;101538.28;5091453;28;20176;-73
2022/07/20 11:28:17;;;;;;;4.65;3.70;;;;;;;38.85;21.04;101540.50;5088810;28;20870;-72